createdAt,value
2018-04-26T00:01:15.299Z,98903.97
2018-04-26T00:03:44.090Z,98899.30
2018-04-26T00:06:12.897Z,98900.51
2018-04-26T00:08:41.589Z,98901.08
2018-04-26T00:11:10.386Z,98896.83
2018-04-26T00:13:39.105Z,98889.75
2018-04-26T00:16:08.402Z,98896.37
2018-04-26T00:18:38.881Z,98897.87
2018-04-26T00:21:12.068Z,98889.83
2018-04-26T00:23:40.814Z,98894.11
2018-04-26T00:26:09.526Z,98882.55
2018-04-26T00:28:38.126Z,98881.66
2018-04-26T00:31:07.845Z,98868.72
2018-04-26T00:33:36.614Z,98874.73
2018-04-26T00:36:07.808Z,98867.05
2018-04-26T00:38:37.460Z,98863.70
2018-04-26T00:41:06.962Z,98859.69
2018-04-26T00:43:36.293Z,98861.58
2018-04-26T00:46:05.302Z,98856.77
2018-04-26T00:48:34.691Z,98852.87
2018-04-26T00:51:04.133Z,98861.59
2018-04-26T00:53:32.845Z,98862.48
2018-04-26T00:56:01.489Z,98864.39
2018-04-26T00:58:30.214Z,98856.85
2018-04-26T01:01:00.482Z,98854.77
2018-04-26T01:03:29.451Z,98849.89
2018-04-26T01:05:58.939Z,98856.06
2018-04-26T01:08:27.974Z,98851.46
2018-04-26T01:10:57.784Z,98847.37
2018-04-26T01:13:27.055Z,98847.10
2018-04-26T01:15:55.706Z,98837.16
2018-04-26T01:18:25.276Z,98835.14
2018-04-26T01:20:53.864Z,98830.33
2018-04-26T01:23:22.684Z,98841.80
2018-04-26T01:25:51.369Z,98844.48
2018-04-26T01:28:20.045Z,98840.20
2018-04-26T01:30:48.820Z,98845.17
2018-04-26T01:33:17.635Z,98848.02
2018-04-26T01:35:46.571Z,98850.47
2018-04-26T01:38:15.353Z,98851.14
2018-04-26T01:40:44.323Z,98845.72
2018-04-26T01:43:14.430Z,98840.02
2018-04-26T01:45:43.924Z,98843.70
2018-04-26T01:48:12.740Z,98849.38
2018-04-26T01:50:41.367Z,98840.89
2018-04-26T01:53:10.224Z,98838.58
2018-04-26T01:55:39.183Z,98832.27
2018-04-26T01:58:07.970Z,98830.68
2018-04-26T02:00:36.675Z,98822.97
2018-04-26T02:03:05.390Z,98821.93
2018-04-26T02:05:34.098Z,98815.00
2018-04-26T02:08:02.789Z,98810.07
2018-04-26T02:10:31.619Z,98807.00
2018-04-26T02:13:01.074Z,98802.38
2018-04-26T02:15:31.193Z,98802.63
2018-04-26T02:17:59.986Z,98800.86
2018-04-26T02:20:28.738Z,98798.60
2018-04-26T02:22:57.347Z,98799.76
2018-04-26T02:25:26.109Z,98799.01
2018-04-26T02:27:54.926Z,98805.28
2018-04-26T02:30:23.714Z,98792.88
2018-04-26T02:32:52.479Z,98793.83
2018-04-26T02:35:21.262Z,98792.89
2018-04-26T02:37:50.061Z,98804.06
2018-04-26T02:40:18.869Z,98801.78
2018-04-26T02:42:47.897Z,98801.33
2018-04-26T02:45:18.379Z,98801.44
2018-04-26T02:47:48.467Z,98797.98
2018-04-26T02:50:18.113Z,98790.34
2018-04-26T02:52:46.831Z,98791.81
2018-04-26T02:55:15.717Z,98790.35
2018-04-26T02:57:44.513Z,98778.58
2018-04-26T03:00:13.313Z,98773.69
2018-04-26T03:02:42.756Z,98783.56
2018-04-26T03:05:11.416Z,98786.28
2018-04-26T03:07:40.240Z,98788.77
2018-04-26T03:10:09.715Z,98785.19
2018-04-26T03:12:38.733Z,98779.86
2018-04-26T03:15:07.917Z,98778.62
2018-04-26T03:17:36.746Z,98773.06
2018-04-26T03:20:05.444Z,98779.26
2018-04-26T03:22:34.164Z,98775.77
2018-04-26T03:25:02.835Z,98782.67
2018-04-26T03:27:32.156Z,98776.41
2018-04-26T03:30:01.709Z,98774.90
2018-04-26T03:32:30.437Z,98775.38
2018-04-26T03:34:59.856Z,98771.05
2018-04-26T03:37:28.572Z,98772.84
2018-04-26T03:39:57.343Z,98764.32
2018-04-26T03:42:27.098Z,98763.16
2018-04-26T03:44:56.287Z,98756.30
2018-04-26T03:47:26.275Z,98752.71
2018-04-26T03:49:55.089Z,98758.63
2018-04-26T03:52:23.891Z,98755.73
2018-04-26T03:54:52.457Z,98751.22
2018-04-26T03:57:21.206Z,98750.91
2018-04-26T04:00:08.453Z,98748.02
2018-04-26T04:02:54.932Z,98744.39
2018-04-26T04:08:35.540Z,98751.69
2018-04-26T04:11:05.088Z,98750.81
2018-04-26T04:13:35.661Z,98747.12
2018-04-26T04:16:04.430Z,98742.66
2018-04-26T04:18:34.370Z,98748.82
2018-04-26T04:21:04.005Z,98757.75
2018-04-26T04:23:33.611Z,98759.34
2018-04-26T04:26:02.257Z,98757.48
2018-04-26T04:28:30.992Z,98762.61
2018-04-26T04:30:59.712Z,98771.52
2018-04-26T04:33:28.554Z,98772.85
2018-04-26T04:35:58.247Z,98772.11
2018-04-26T04:38:28.143Z,98770.45
2018-04-26T04:40:57.974Z,98773.66
2018-04-26T04:43:27.074Z,98766.84
2018-04-26T04:45:56.653Z,98764.34
2018-04-26T04:48:25.794Z,98771.34
2018-04-26T04:50:55.395Z,98769.37
2018-04-26T04:53:24.151Z,98768.66
2018-04-26T04:55:52.910Z,98766.94
2018-04-26T04:58:21.709Z,98760.95
2018-04-26T05:00:50.635Z,98755.00
2018-04-26T05:03:19.329Z,98761.75
2018-04-26T05:05:48.006Z,98765.65
2018-04-26T05:08:18.114Z,98776.76
2018-04-26T05:10:47.349Z,98770.86
2018-04-26T05:13:16.837Z,98770.12
2018-04-26T05:15:45.783Z,98775.21
2018-04-26T05:18:15.590Z,98770.45
2018-04-26T05:20:44.358Z,98768.66
2018-04-26T05:23:13.918Z,98765.53
2018-04-26T05:25:42.743Z,98764.02
2018-04-26T05:28:11.521Z,98766.01
2018-04-26T05:30:40.240Z,98773.30
2018-04-26T05:33:09.053Z,98771.31
2018-04-26T05:35:37.854Z,98765.59
2018-04-26T05:38:07.344Z,98767.72
2018-04-26T05:40:37.549Z,98767.66
2018-04-26T05:43:06.871Z,98773.52
2018-04-26T05:45:35.518Z,98773.68
2018-04-26T05:48:05.094Z,98773.94
2018-04-26T05:50:33.812Z,98766.86
2018-04-26T05:53:02.545Z,98770.48
2018-04-26T05:55:31.219Z,98774.06
2018-04-26T05:58:00.239Z,98770.45
2018-04-26T06:00:28.989Z,98762.12
2018-04-26T06:02:57.974Z,98763.82
2018-04-26T06:05:27.169Z,98768.33
2018-04-26T06:07:56.439Z,98766.87
2018-04-26T06:10:26.202Z,98767.27
2018-04-26T06:12:55.101Z,98769.45
2018-04-26T06:15:24.529Z,98771.30
2018-04-26T06:17:54.079Z,98765.82
2018-04-26T06:20:23.053Z,98765.77
2018-04-26T06:22:51.863Z,98764.88
2018-04-26T06:25:20.603Z,98766.08
2018-04-26T06:27:49.483Z,98757.93
2018-04-26T06:30:18.140Z,98756.13
2018-04-26T06:32:46.728Z,98755.95
2018-04-26T06:35:15.686Z,98751.69
2018-04-26T06:37:44.370Z,98754.74
2018-04-26T06:40:14.657Z,98749.83
2018-04-26T06:42:43.888Z,98748.02
2018-04-26T06:45:13.490Z,98741.44
2018-04-26T06:47:42.236Z,98732.88
2018-04-26T06:50:11.016Z,98741.89
2018-04-26T06:52:39.673Z,98737.65
2018-04-26T06:55:08.391Z,98744.11
2018-04-26T06:57:37.050Z,98749.33
2018-04-26T07:00:06.845Z,98745.66
2018-04-26T07:02:35.429Z,98749.02
2018-04-26T07:05:04.067Z,98754.21
2018-04-26T07:07:32.773Z,98753.04
2018-04-26T07:10:02.962Z,98753.98
2018-04-26T07:12:31.931Z,98751.23
2018-04-26T07:15:01.052Z,98749.13
2018-04-26T07:17:29.669Z,98744.42
2018-04-26T07:19:58.514Z,98745.56
2018-04-26T07:22:27.323Z,98739.08
2018-04-26T07:24:55.999Z,98738.81
2018-04-26T07:27:25.444Z,98736.38
2018-04-26T07:29:54.859Z,98736.37
2018-04-26T07:32:24.205Z,98730.36
2018-04-26T07:34:52.830Z,98734.17
2018-04-26T07:37:21.552Z,98731.83
2018-04-26T07:39:50.156Z,98733.26
2018-04-26T07:42:19.504Z,98733.92
2018-04-26T07:44:48.935Z,98727.49
2018-04-26T07:47:18.425Z,98726.05
2018-04-26T07:49:47.135Z,98729.72
2018-04-26T07:52:15.735Z,98723.78
2018-04-26T07:54:44.493Z,98726.03
2018-04-26T07:57:13.924Z,98727.98
2018-04-26T07:59:43.313Z,98728.10
2018-04-26T08:02:12.045Z,98720.45
2018-04-26T08:04:40.767Z,98730.19
2018-04-26T08:07:10.221Z,98724.59
2018-04-26T08:09:39.027Z,98720.05
2018-04-26T08:12:07.813Z,98721.11
2018-04-26T08:14:38.127Z,98718.44
2018-04-26T08:17:07.813Z,98713.56
2018-04-26T08:19:36.761Z,98722.09
2018-04-26T08:22:05.560Z,98720.24
2018-04-26T08:24:34.237Z,98713.57
2018-04-26T08:27:03.884Z,98722.81
2018-04-26T08:29:32.737Z,98719.45
2018-04-26T08:32:01.379Z,98720.24
2018-04-26T08:34:30.101Z,98718.42
2018-04-26T08:36:59.353Z,98721.55
2018-04-26T08:39:28.136Z,98721.48
2018-04-26T08:41:57.471Z,98718.78
2018-04-26T08:44:27.001Z,98726.34
2018-04-26T08:46:56.114Z,98715.66
2018-04-26T08:49:26.086Z,98724.22
2018-04-26T08:51:55.898Z,98737.24
2018-04-26T08:54:25.462Z,98723.59
2018-04-26T08:56:55.191Z,98723.20
2018-04-26T08:59:23.832Z,98720.29
2018-04-26T09:01:52.755Z,98713.62
2018-04-26T09:04:21.982Z,98709.55
2018-04-26T09:06:51.048Z,98706.19
2018-04-26T09:09:19.938Z,98710.34
2018-04-26T09:11:51.433Z,98711.07
2018-04-26T09:14:22.015Z,98711.00
2018-04-26T09:16:51.746Z,98696.05
2018-04-26T09:19:20.628Z,98694.19
2018-04-26T09:21:49.568Z,98713.09
2018-04-26T09:24:18.658Z,98705.42
2018-04-26T09:26:47.507Z,98695.47
2018-04-26T09:29:16.555Z,98697.91
2018-04-26T09:31:45.703Z,98696.78
2018-04-26T09:34:14.463Z,98692.95
2018-04-26T09:36:43.127Z,98689.48
2018-04-26T09:39:12.882Z,98686.53
2018-04-26T09:41:43.187Z,98691.63
2018-04-26T09:44:13.779Z,98692.07
2018-04-26T09:46:43.041Z,98678.41
2018-04-26T09:49:13.127Z,98658.61
2018-04-26T09:51:42.031Z,98672.30
2018-04-26T09:54:12.006Z,98662.41
2018-04-26T09:56:40.886Z,98666.87
2018-04-26T09:59:10.417Z,98657.69
2018-04-26T10:01:39.648Z,98668.46
2018-04-26T10:04:15.201Z,98664.09
2018-04-26T10:06:49.436Z,98664.47
2018-04-26T10:09:19.516Z,98650.70
2018-04-26T10:11:48.886Z,98646.27
2018-04-26T10:14:17.906Z,98642.58
2018-04-26T10:16:47.143Z,98645.81
2018-04-26T10:19:16.507Z,98647.91
2018-04-26T10:21:46.455Z,98645.78
2018-04-26T10:24:16.274Z,98628.77
2018-04-26T10:26:47.677Z,98632.98
2018-04-26T10:29:16.379Z,98626.88
2018-04-26T10:31:45.408Z,98625.08
2018-04-26T10:34:14.106Z,98626.38
2018-04-26T10:36:42.900Z,98612.67
2018-04-26T10:39:14.749Z,98621.34
2018-04-26T10:41:43.979Z,98613.84
2018-04-26T10:44:14.166Z,98606.69
2018-04-26T10:46:43.799Z,98596.00
2018-04-26T10:49:12.530Z,98599.98
2018-04-26T10:51:41.524Z,98597.41
2018-04-26T10:54:11.399Z,98586.59
2018-04-26T10:56:40.133Z,98587.63
2018-04-26T10:59:08.855Z,98598.01
2018-04-26T11:01:38.181Z,98580.09
2018-04-26T11:04:07.548Z,98582.69
2018-04-26T11:06:36.496Z,98577.26
2018-04-26T11:09:06.380Z,98570.88
2018-04-26T11:11:36.605Z,98563.72
2018-04-26T11:14:06.371Z,98559.66
2018-04-26T11:16:35.453Z,98557.67
2018-04-26T11:19:05.528Z,98546.70
2018-04-26T11:21:36.379Z,98558.15
2018-04-26T11:24:06.563Z,98548.66
2018-04-26T11:26:36.179Z,98540.33
2018-04-26T11:29:05.941Z,98555.40
2018-04-26T11:31:34.761Z,98547.00
2018-04-26T11:34:03.903Z,98532.06
2018-04-26T11:36:32.835Z,98540.86
2018-04-26T11:39:02.408Z,98530.02
2018-04-26T11:41:31.368Z,98534.48
2018-04-26T11:44:01.254Z,98532.88
2018-04-26T11:46:30.555Z,98527.58
2018-04-26T11:49:00.157Z,98531.56
2018-04-26T11:51:30.262Z,98540.76
2018-04-26T11:53:59.837Z,98529.05
2018-04-26T11:56:29.625Z,98526.18
2018-04-26T11:58:59.113Z,98514.73
2018-04-26T12:01:29.210Z,98524.65
2018-04-26T12:03:58.688Z,98530.82
2018-04-26T12:06:27.686Z,98523.65
2018-04-26T12:08:57.085Z,98524.04
2018-04-26T12:11:26.261Z,98526.44
2018-04-26T12:13:55.766Z,98523.47
2018-04-26T12:16:26.277Z,98517.47
2018-04-26T12:18:55.863Z,98518.12
2018-04-26T12:21:24.931Z,98519.22
2018-04-26T12:23:54.580Z,98525.55
2018-04-26T12:26:24.039Z,98522.92
2018-04-26T12:28:54.818Z,98514.02
2018-04-26T12:31:24.592Z,98516.45
2018-04-26T12:33:53.673Z,98519.00
2018-04-26T12:36:23.835Z,98509.95
2018-04-26T12:38:52.871Z,98513.09
2018-04-26T12:41:23.361Z,98520.50
2018-04-26T12:43:53.041Z,98515.87
2018-04-26T12:46:22.438Z,98517.99
2018-04-26T12:48:52.179Z,98505.39
2018-04-26T12:51:21.852Z,98512.09
2018-04-26T12:53:50.762Z,98502.62
2018-04-26T12:56:21.242Z,98510.25
2018-04-26T12:58:52.785Z,98508.05
2018-04-26T13:01:21.547Z,98501.34
2018-04-26T13:03:50.750Z,98490.59
2018-04-26T13:06:19.700Z,98492.22
2018-04-26T13:08:49.389Z,98486.07
2018-04-26T13:11:19.629Z,98498.02
2018-04-26T13:13:49.517Z,98488.84
2018-04-26T13:16:18.556Z,98483.84
2018-04-26T13:18:49.309Z,98477.08
2018-04-26T13:21:18.321Z,98474.80
2018-04-26T13:23:47.925Z,98470.41
2018-04-26T13:26:16.759Z,98465.42
2018-04-26T13:28:45.696Z,98476.05
2018-04-26T13:31:14.454Z,98465.33
2018-04-26T13:33:43.248Z,98461.05
2018-04-26T13:36:12.770Z,98455.05
2018-04-26T13:38:42.513Z,98446.84
2018-04-26T13:41:12.336Z,98449.57
2018-04-26T13:43:41.417Z,98440.55
2018-04-26T13:46:10.887Z,98438.28
2018-04-26T13:48:39.929Z,98433.19
2018-04-26T13:51:09.308Z,98440.94
2018-04-26T13:53:39.331Z,98437.78
2018-04-26T13:56:08.855Z,98432.09
2018-04-26T13:58:38.483Z,98430.54
2018-04-26T14:01:08.026Z,98434.05
2018-04-26T14:03:39.394Z,98436.05
2018-04-26T14:06:08.858Z,98422.30
2018-04-26T14:08:37.543Z,98427.31
2018-04-26T14:11:08.603Z,98417.41
2018-04-26T14:13:37.472Z,98405.52
2018-04-26T14:16:06.143Z,98408.98
2018-04-26T14:18:35.257Z,98402.06
2018-04-26T14:21:04.533Z,98403.83
2018-04-26T14:23:34.571Z,98389.92
2018-04-26T14:26:04.587Z,98397.45
2018-04-26T14:28:34.178Z,98389.51
2018-04-26T14:31:04.371Z,98390.60
2018-04-26T14:33:34.377Z,98390.72
2018-04-26T14:36:03.841Z,98396.72
2018-04-26T14:38:34.516Z,98380.77
2018-04-26T14:41:03.253Z,98380.90
2018-04-26T14:43:32.521Z,98384.80
2018-04-26T14:46:03.255Z,98379.77
2018-04-26T14:48:32.234Z,98376.73
2018-04-26T14:51:01.349Z,98380.02
2018-04-26T14:53:30.561Z,98387.51
2018-04-26T14:55:59.543Z,98381.91
2018-04-26T14:58:29.229Z,98383.23
2018-04-26T15:00:59.361Z,98371.56
2018-04-26T15:03:29.849Z,98362.75
2018-04-26T15:05:59.530Z,98372.30
2018-04-26T15:08:29.377Z,98369.70
2018-04-26T15:10:58.011Z,98371.19
2018-04-26T15:13:27.040Z,98373.20
2018-04-26T15:15:57.129Z,98376.36
2018-04-26T15:18:26.955Z,98375.00
2018-04-26T15:20:55.895Z,98366.19
2018-04-26T15:23:24.899Z,98364.83
2018-04-26T15:25:54.472Z,98370.81
2018-04-26T15:28:24.995Z,98377.16
2018-04-26T15:30:53.799Z,98364.95
2018-04-26T15:33:23.987Z,98368.38
2018-04-26T15:35:53.250Z,98372.78
2018-04-26T15:38:24.440Z,98374.59
2018-04-26T15:40:56.096Z,98377.61
2018-04-26T15:43:28.287Z,98382.55
2018-04-26T15:45:58.994Z,98376.25
2018-04-26T15:48:29.571Z,98376.95
2018-04-26T15:51:04.628Z,98374.41
2018-04-26T15:53:53.926Z,98379.13
2018-04-26T15:56:46.604Z,98375.78
2018-04-26T15:59:33.654Z,98372.47
2018-04-26T16:05:51.631Z,98372.09
2018-04-26T16:11:49.821Z,98369.37
2018-04-26T16:14:37.573Z,98374.92
2018-04-26T16:17:40.404Z,98377.61
2018-04-26T16:24:12.433Z,98380.92
2018-04-26T16:30:21.435Z,98385.86
2018-04-26T16:36:12.471Z,98391.81
2018-04-26T16:39:02.830Z,98388.98
2018-04-26T16:41:32.768Z,98392.46
2018-04-26T16:44:02.717Z,98396.05
2018-04-26T16:46:34.819Z,98397.06
2018-04-26T16:49:03.984Z,98385.06
2018-04-26T16:51:32.818Z,98386.06
2018-04-26T16:54:12.073Z,98384.60
2018-04-26T16:56:41.396Z,98387.10
2018-04-26T16:59:11.429Z,98391.94
2018-04-26T17:01:42.393Z,98391.05
2018-04-26T17:04:11.730Z,98388.81
2018-04-26T17:06:40.753Z,98388.44
2018-04-26T17:09:09.741Z,98386.23
2018-04-26T17:11:39.050Z,98391.71
2018-04-26T17:14:10.220Z,98389.63
2018-04-26T17:16:41.699Z,98384.88
2018-04-26T17:19:14.841Z,98387.20
2018-04-26T17:21:45.541Z,98394.34
2018-04-26T17:24:15.600Z,98401.91
2018-04-26T17:26:45.824Z,98395.42
2018-04-26T17:29:14.484Z,98401.31
2018-04-26T17:31:44.420Z,98408.45
2018-04-26T17:34:14.324Z,98410.35
2018-04-26T17:36:43.729Z,98412.89
2018-04-26T17:39:13.647Z,98409.19
2018-04-26T17:41:43.191Z,98417.13
2018-04-26T17:44:12.151Z,98419.36
2018-04-26T17:46:42.362Z,98426.09
2018-04-26T17:49:12.191Z,98419.05
2018-04-26T17:51:42.761Z,98424.88
2018-04-26T17:54:12.644Z,98427.72
2018-04-26T17:56:42.435Z,98434.92
2018-04-26T17:59:12.651Z,98432.98
2018-04-26T18:01:42.032Z,98438.18
2018-04-26T18:04:12.198Z,98437.64
2018-04-26T18:06:42.168Z,98434.65
2018-04-26T18:09:13.024Z,98445.97
2018-04-26T18:11:42.337Z,98439.28
2018-04-26T18:14:14.069Z,98451.83
2018-04-26T18:16:45.438Z,98445.51
2018-04-26T18:19:15.627Z,98447.34
2018-04-26T18:21:45.446Z,98453.65
2018-04-26T18:24:14.756Z,98457.30
2018-04-26T18:26:46.086Z,98458.16
2018-04-26T18:29:16.440Z,98459.20
2018-04-26T18:31:46.408Z,98465.36
2018-04-26T18:34:17.801Z,98465.12
2018-04-26T18:36:47.566Z,98467.75
2018-04-26T18:39:17.005Z,98459.41
2018-04-26T18:41:46.423Z,98463.90
2018-04-26T18:44:15.091Z,98464.28
2018-04-26T18:46:44.911Z,98463.69
2018-04-26T18:49:13.628Z,98471.77
2018-04-26T18:51:45.391Z,98479.05
2018-04-26T18:54:14.601Z,98474.19
2018-04-26T18:56:43.414Z,98480.94
2018-04-26T18:59:12.989Z,98475.01
2018-04-26T19:01:43.165Z,98483.09
2018-04-26T19:04:12.687Z,98484.25
2018-04-26T19:06:41.540Z,98482.86
2018-04-26T19:09:10.345Z,98487.30
2018-04-26T19:11:40.297Z,98494.05
2018-04-26T19:14:09.833Z,98495.69
2018-04-26T19:16:39.700Z,98500.45
2018-04-26T19:19:09.840Z,98502.02
2018-04-26T19:21:41.138Z,98507.72
2018-04-26T19:24:10.070Z,98508.67
2018-04-26T19:26:40.411Z,98513.52
2018-04-26T19:29:10.483Z,98509.75
2018-04-26T19:31:41.365Z,98514.10
2018-04-26T19:34:11.587Z,98518.28
2018-04-26T19:36:41.252Z,98516.04
2018-04-26T19:39:10.212Z,98515.08
2018-04-26T19:41:40.188Z,98524.59
2018-04-26T19:44:09.379Z,98533.00
2018-04-26T19:46:38.439Z,98529.25
2018-04-26T19:49:10.282Z,98531.86
2018-04-26T19:51:40.256Z,98531.61
2018-04-26T19:54:10.475Z,98532.77
2018-04-26T19:56:41.748Z,98535.76
2018-04-26T19:59:11.399Z,98536.16
2018-04-26T20:01:40.822Z,98541.25
2018-04-26T20:04:12.647Z,98540.83
2018-04-26T20:06:43.327Z,98538.22
2018-04-26T20:09:14.658Z,98540.35
2018-04-26T20:11:43.799Z,98530.80
2018-04-26T20:14:14.912Z,98532.23
2018-04-26T20:16:46.006Z,98524.16
2018-04-26T20:19:15.490Z,98524.59
2018-04-26T20:21:44.640Z,98531.45
2018-04-26T20:24:15.733Z,98522.20
2018-04-26T20:26:45.087Z,98526.26
2018-04-26T20:29:14.661Z,98523.22
2018-04-26T20:31:45.005Z,98532.53
2018-04-26T20:34:14.486Z,98536.11
2018-04-26T20:36:43.987Z,98526.11
2018-04-26T20:39:15.080Z,98525.06
2018-04-26T20:41:59.357Z,98523.06
2018-04-26T20:44:47.198Z,98526.05
2018-04-26T20:47:18.630Z,98522.58
2018-04-26T20:49:48.398Z,98519.58
2018-04-26T20:52:18.579Z,98527.38
2018-04-26T20:54:47.759Z,98528.16
2018-04-26T20:57:18.326Z,98529.54
2018-04-26T20:59:49.379Z,98529.54
2018-04-26T21:02:19.523Z,98528.68
2018-04-26T21:04:49.888Z,98527.05
2018-04-26T21:07:19.075Z,98532.27
2018-04-26T21:09:48.482Z,98546.72
2018-04-26T21:12:18.040Z,98551.19
2018-04-26T21:14:47.890Z,98550.12
2018-04-26T21:17:17.315Z,98551.70
2018-04-26T21:19:48.513Z,98554.72
2018-04-26T21:22:18.022Z,98553.77
2018-04-26T21:24:47.851Z,98552.96
2018-04-26T21:27:17.356Z,98558.06
2018-04-26T21:29:48.477Z,98556.25
2018-04-26T21:32:18.637Z,98554.32
2018-04-26T21:34:48.104Z,98556.81
2018-04-26T21:37:19.055Z,98554.59
2018-04-26T21:39:50.305Z,98559.46
2018-04-26T21:42:20.647Z,98549.97
2018-04-26T21:44:50.431Z,98545.91
2018-04-26T21:47:20.541Z,98543.79
2018-04-26T21:49:54.926Z,98550.05
2018-04-26T21:52:30.848Z,98549.13
2018-04-26T21:55:05.571Z,98545.09
2018-04-26T21:57:40.521Z,98557.30
2018-04-26T22:00:15.054Z,98559.91
2018-04-26T22:02:43.637Z,98565.72
2018-04-26T22:05:16.292Z,98564.79
2018-04-26T22:07:45.986Z,98567.75
2018-04-26T22:10:15.874Z,98562.60
2018-04-26T22:12:44.801Z,98568.90
2018-04-26T22:15:14.016Z,98566.50
2018-04-26T22:17:43.067Z,98564.41
2018-04-26T22:20:12.980Z,98571.39
2018-04-26T22:22:43.166Z,98576.25
2018-04-26T22:25:12.858Z,98573.06
2018-04-26T22:27:42.222Z,98577.64
2018-04-26T22:30:11.518Z,98581.47
2018-04-26T22:32:40.962Z,98580.77
2018-04-26T22:35:09.983Z,98585.20
2018-04-26T22:37:38.789Z,98587.48
2018-04-26T22:40:07.759Z,98583.20
2018-04-26T22:42:37.532Z,98591.09
2018-04-26T22:45:07.400Z,98590.35
2018-04-26T22:47:36.968Z,98584.63
2018-04-26T22:50:06.189Z,98587.78
2018-04-26T22:52:35.883Z,98592.91
2018-04-26T22:55:05.640Z,98593.15
2018-04-26T22:57:34.553Z,98588.38
2018-04-26T23:00:03.500Z,98581.63
2018-04-26T23:02:33.043Z,98580.47
2018-04-26T23:05:03.166Z,98578.64
2018-04-26T23:07:32.499Z,98567.27
2018-04-26T23:10:01.266Z,98564.30
2018-04-26T23:12:30.380Z,98572.77
2018-04-26T23:14:59.287Z,98571.11
2018-04-26T23:17:30.099Z,98563.27
2018-04-26T23:19:59.533Z,98574.02
2018-04-26T23:22:29.988Z,98566.34
2018-04-26T23:24:59.499Z,98565.50
2018-04-26T23:27:30.008Z,98567.25
2018-04-26T23:29:59.693Z,98564.70
2018-04-26T23:32:29.552Z,98569.26
2018-04-26T23:34:59.598Z,98570.58
2018-04-26T23:37:29.359Z,98570.92
2018-04-26T23:39:58.543Z,98571.56
2018-04-26T23:42:28.839Z,98570.98
2018-04-26T23:44:59.288Z,98570.90
2018-04-26T23:47:28.923Z,98561.16
2018-04-26T23:49:57.942Z,98559.01
2018-04-26T23:52:26.700Z,98560.27
2018-04-26T23:54:56.339Z,98556.06
2018-04-26T23:57:25.676Z,98555.81
2018-04-26T23:59:54.660Z,98558.00
